X  Sluiten METAR luchtvaart weer gegevens         EHGG Groningen Airport Eelde
Temperatuur
54°F Temperatuur
46°F Dauwpunt
76% Vochtigheid



Wind
12 MPH
19 KM/U
5 M/S
10 KTS



290°
WNW
Huidig weer

Mostly Sunny Grotendeels zonnig
Luchtdruk 1018 (hPa) - 30.06 (inHg)
Zicht 6 (mijl) - 10 (km)
Vliegveld
Vliegveld code EHGG

Locatie : Groningen Airport Eelde
Afstand: 14 (mi)

Metar:
METAR EHGG 121525Z AUTO 29010KT 250V330 9999 FEW043/// 12/08 Q1018 TEMPO 7000 -SHRA FEW020TCU

Tijd: 12-06-2024 17:25 CEST